Portage, Michigan
Current Conditions -  °F | °C
As of 8:53 PM on Sunday 25 Jan 2015 (Local Time) from KAZO Reporting Station
Broken Clouds Broken Clouds  
Wind Chill: 11°   Ceiling: 12000
Heat Index: 21°   Visibility: 10mi
Dew Point: 12°   Wind: 9mph
Humidity: 68%   Direction: 30°NNE
Pressure: 29.95"   Gusts: NA
Location:  42.2°N, 85.59°W
Report Text: KAZO 260153Z 03008KT 360V060 10SM BKN120 M06/M11 A2995 RMK AO2 SLP154 T10611111 $
Loading
Personal Weather Stations






























Interactive Weather Map New forecast layout! Learn more

10-Day Weather Forecast

Advertisements
Track Severe Weather on mobile